Time;durP1;ratioP1;P1;durP2;ratioP2;P2;SDS_P1;SDS_P2;PMS_P1;PMS_P2;Temp;Humidity;BMP_temperature;BMP_pressure;BME280_temperature;BME280_humidity;BME280_pressure;Samples;Min_cycle;Max_cycle;Signal;HPM_P1;HPM_P2
2023/10/19 00:01:10;;;;;;;46.97;38.90;;;31.50;1.00;;;;;;5060128;28;20017;-53
2023/10/19 00:03:36;;;;;;;47.65;39.78;;;31.50;99.90;;;;;;5072255;28;20037;-52
2023/10/19 00:06:02;;;;;;;48.80;39.47;;;31.60;99.90;;;;;;5073233;28;20028;-50
2023/10/19 00:08:40;;;;;;;45.60;38.42;;;31.50;99.90;;;;;;5069277;28;20446;-49
2023/10/19 00:13:35;;;;;;;50.40;41.28;;;31.50;1.00;;;;;;5059952;28;20037;-52
2023/10/19 00:16:07;;;;;;;49.78;39.20;;;31.50;99.90;;;;;;5040108;28;20020;-50
2023/10/19 00:18:34;;;;;;;50.65;40.80;;;31.60;99.90;;;;;;5073091;28;20056;-49
2023/10/19 00:21:11;;;;;;;48.30;40.25;;;31.50;99.90;;;;;;5053810;28;20025;-50
2023/10/19 00:23:37;;;;;;;49.90;41.17;;;31.50;99.90;;;;;;5064777;28;20024;-49
2023/10/19 00:26:14;;;;;;;51.95;42.50;;;31.50;99.90;;;;;;5058632;28;20031;-50
2023/10/19 00:28:40;;;;;;;51.17;40.55;;;31.50;1.00;;;;;;5072433;28;20439;-50
2023/10/19 00:31:10;;;;;;;49.08;40.15;;;31.50;1.00;;;;;;5056944;28;20108;-49
2023/10/19 00:33:40;;;;;;;54.42;42.97;;;31.50;1.00;;;;;;5072591;28;20046;-50
2023/10/19 00:36:12;;;;;;;54.30;42.25;;;31.50;1.00;;;;;;5072584;28;20031;-49
2023/10/19 00:38:39;;;;;;;49.53;41.67;;;31.50;1.00;;;;;;5060953;28;20024;-51
2023/10/19 00:43:42;;;;;;;51.03;42.00;;;31.50;1.00;;;;;;5063689;28;20033;-49
2023/10/19 00:46:15;;;;;;;50.00;42.45;;;31.50;1.00;;;;;;5034291;28;20021;-50
2023/10/19 00:48:58;;;;;;;52.10;43.38;;;31.50;1.00;;;;;;5055322;28;20516;-49
2023/10/19 00:53:59;;;;;;;51.63;41.60;;;31.50;1.00;;;;;;5069831;28;20466;-54
2023/10/19 00:56:31;;;;;;;53.22;43.30;;;31.50;1.00;;;;;;5052677;28;20102;-51
2023/10/19 00:59:07;;;;;;;54.30;44.22;;;31.50;1.00;;;;;;5053953;28;20119;-53
2023/10/19 01:01:36;;;;;;;54.00;43.17;;;31.50;1.00;;;;;;5070728;28;20117;-53
2023/10/19 01:04:04;;;;;;;51.70;40.67;;;31.50;1.00;;;;;;5066713;28;20043;-53
2023/10/19 01:06:32;;;;;;;51.30;40.83;;;31.50;1.00;;;;;;5067791;28;20027;-53
2023/10/19 01:09:01;;;;;;;58.58;42.92;;;31.40;1.00;;;;;;5053354;28;20028;-49
2023/10/19 01:11:28;;;;;;;53.78;42.25;;;31.40;1.00;;;;;;5070689;28;20021;-53
2023/10/19 01:13:55;;;;;;;55.42;44.50;;;31.50;1.00;;;;;;5070237;28;20039;-49
2023/10/19 01:16:20;;;;;;;55.72;41.88;;;31.50;1.00;;;;;;5064003;28;20062;-53
2023/10/19 01:18:55;;;;;;;57.45;43.92;;;31.50;1.00;;;;;;5071352;28;20438;-48
2023/10/19 01:21:25;;;;;;;61.55;46.00;;;31.50;1.00;;;;;;5053621;28;20021;-50
2023/10/19 01:23:52;;;;;;;54.65;44.28;;;31.50;1.00;;;;;;5071289;28;20122;-49
2023/10/19 01:26:21;;;;;;;53.83;45.47;;;31.40;1.00;;;;;;5052340;28;20029;-52
2023/10/19 01:28:52;;;;;;;55.97;44.10;;;31.40;1.00;;;;;;5070637;28;20098;-50
2023/10/19 01:33:57;;;;;;;51.00;43.28;;;31.40;1.00;;;;;;5060216;28;20127;-49
2023/10/19 01:38:53;;;;;;;52.38;43.03;;;31.40;1.00;;;;;;5063149;28;20037;-49
2023/10/19 01:41:19;;;;;;;52.78;44.85;;;31.40;1.00;;;;;;5067298;28;20025;-52
2023/10/19 01:43:46;;;;;;;53.08;43.60;;;31.40;1.00;;;;;;5071642;28;20036;-49
2023/10/19 01:46:16;;;;;;;54.83;44.05;;;31.40;1.00;;;;;;5071480;28;20025;-50
2023/10/19 01:48:43;;;;;;;54.33;46.28;;;31.40;1.00;;;;;;5058271;28;20020;-49
2023/10/19 01:51:10;;;;;;;53.67;44.03;;;31.40;1.00;;;;;;5055406;28;20036;-49
2023/10/19 01:53:39;;;;;;;55.95;45.33;;;31.40;1.00;;;;;;5071396;28;20081;-48
2023/10/19 01:56:12;;;;;;;55.00;45.05;;;31.40;1.00;;;;;;5071482;28;20025;-50
2023/10/19 01:58:39;;;;;;;52.85;44.83;;;31.50;1.00;;;;;;5071768;28;20039;-48
2023/10/19 02:03:35;;;;;;;55.50;42.78;;;31.40;1.00;;;;;;5070765;28;20501;-49
2023/10/19 02:06:17;;;;;;;56.00;45.10;;;31.50;1.00;;;;;;5070743;28;20025;-49
2023/10/19 02:12:07;;;;;;;52.38;42.13;;;31.40;1.00;;;;;;5068107;28;20189;-53
2023/10/19 02:14:33;;;;;;;58.45;43.92;;;31.50;1.00;;;;;;5070571;28;20043;-54
2023/10/19 02:17:00;;;;;;;54.00;43.47;;;31.50;1.00;;;;;;5071876;28;20021;-50
2023/10/19 02:19:29;;;;;;;57.78;45.17;;;31.40;1.00;;;;;;5073698;28;20036;-48
2023/10/19 02:21:57;;;;;;;57.47;46.05;;;31.40;1.00;;;;;;5073685;28;20039;-50
2023/10/19 02:24:23;;;;;;;56.78;45.72;;;31.40;1.00;;;;;;5073607;28;20090;-50
2023/10/19 02:26:53;;;;;;;58.63;45.47;;;31.40;1.00;;;;;;5073624;28;20036;-50
2023/10/19 02:29:19;;;;;;;58.90;45.53;;;31.50;1.00;;;;;;5068309;28;20028;-50
2023/10/19 02:31:47;;;;;;;57.85;46.88;;;31.40;1.00;;;;;;5060318;28;20035;-50
2023/10/19 02:34:15;;;;;;;55.58;44.72;;;31.40;1.00;;;;;;5073572;28;20123;-50
2023/10/19 02:36:41;;;;;;;56.13;45.13;;;31.40;1.00;;;;;;5059038;28;20028;-52
2023/10/19 02:39:14;;;;;;;53.03;44.60;;;31.40;1.00;;;;;;5073726;28;20111;-52
2023/10/19 02:41:42;;;;;;;53.05;44.45;;;31.40;1.00;;;;;;5073751;28;20059;-52
2023/10/19 02:44:09;;;;;;;54.50;45.83;;;31.50;1.00;;;;;;5073688;28;20454;-52
2023/10/19 02:46:39;;;;;;;57.25;45.35;;;31.50;1.00;;;;;;5055849;28;20086;-50
2023/10/19 02:49:22;;;;;;;58.75;46.47;;;31.40;1.00;;;;;;5073621;28;20024;-49
2023/10/19 02:51:49;;;;;;;56.45;46.17;;;31.40;1.00;;;;;;5068018;28;20030;-50
2023/10/19 02:54:20;;;;;;;58.67;47.17;;;31.40;1.00;;;;;;5060489;28;20043;-50
2023/10/19 02:56:56;;;;;;;57.75;46.05;;;31.40;1.00;;;;;;5073515;28;20025;-51
2023/10/19 02:59:23;;;;;;;59.40;47.28;;;31.40;1.00;;;;;;5060669;28;20099;-52
2023/10/19 03:04:49;;;;;;;59.35;47.58;;;31.40;1.00;;;;;;5047503;28;20072;-49
2023/10/19 03:07:15;;;;;;;59.63;47.17;;;31.40;1.00;;;;;;5074205;28;20093;-51
2023/10/19 03:09:48;;;;;;;56.83;46.78;;;31.30;1.00;;;;;;5074044;28;20066;-49
2023/10/19 03:12:14;;;;;;;56.70;46.78;;;31.40;1.00;;;;;;5074188;28;20027;-49
2023/10/19 03:14:43;;;;;;;62.35;48.60;;;31.30;1.00;;;;;;5074139;28;20033;-51
2023/10/19 03:17:10;;;;;;;59.00;46.67;;;31.40;1.00;;;;;;5074303;28;20370;-56
2023/10/19 03:19:36;;;;;;;57.08;46.78;;;31.40;1.00;;;;;;5073871;28;20033;-50
2023/10/19 03:22:17;;;;;;;52.97;45.00;;;31.40;1.00;;;;;;5073948;28;20028;-52
2023/10/19 03:24:45;;;;;;;55.03;43.47;;;31.40;1.00;;;;;;5069408;28;20098;-50
2023/10/19 03:27:15;;;;;;;59.13;46.45;;;31.40;1.00;;;;;;5055561;28;20367;-52
2023/10/19 03:29:45;;;;;;;54.53;44.70;;;31.30;1.00;;;;;;5072884;28;20016;-52
2023/10/19 03:32:12;;;;;;;52.88;43.28;;;31.30;1.00;;;;;;5073877;28;20035;-51
2023/10/19 03:34:47;;;;;;;53.00;43.63;;;31.30;1.00;;;;;;5073455;28;20037;-50
2023/10/19 03:37:14;;;;;;;52.38;42.63;;;31.30;1.00;;;;;;5073643;28;20405;-49
2023/10/19 03:39:41;;;;;;;53.92;43.25;;;31.40;1.00;;;;;;5069375;28;20059;-49
2023/10/19 03:42:07;;;;;;;51.03;41.80;;;31.30;1.00;;;;;;5074009;28;20111;-50
2023/10/19 03:47:18;;;;;;;52.25;42.65;;;31.40;1.00;;;;;;5073495;28;20032;-50
2023/10/19 03:49:46;;;;;;;50.45;41.38;;;31.30;1.00;;;;;;5073582;28;20035;-53
2023/10/19 03:54:41;;;;;;;50.38;41.55;;;31.40;1.00;;;;;;5068287;28;20036;-51
2023/10/19 03:57:11;;;;;;;51.58;42.85;;;31.40;1.00;;;;;;5073593;28;20024;-51
2023/10/19 03:59:44;;;;;;;52.38;42.88;;;31.40;1.00;;;;;;5072874;28;20090;-49
2023/10/19 04:02:13;;;;;;;53.88;43.05;;;31.40;1.00;;;;;;5073121;28;20048;-49
2023/10/19 04:04:43;;;;;;;56.50;44.95;;;31.40;1.00;;;;;;5073302;28;20044;-49
2023/10/19 04:07:20;;;;;;;57.60;45.13;;;31.40;1.00;;;;;;5061316;28;20021;-48
2023/10/19 04:12:30;;;;;;;54.38;42.72;;;31.40;1.00;;;;;;5070121;28;20528;-48
2023/10/19 04:14:57;;;;;;;54.47;43.92;;;31.40;1.00;;;;;;5058823;28;20108;-48
2023/10/19 04:17:23;;;;;;;56.42;43.05;;;31.40;1.00;;;;;;5073132;28;20028;-48
2023/10/19 04:19:51;;;;;;;55.80;44.45;;;31.40;1.00;;;;;;5072633;28;20020;-50
2023/10/19 04:22:23;;;;;;;57.72;44.95;;;31.40;1.00;;;;;;5072629;28;20110;-49
2023/10/19 04:24:50;;;;;;;56.40;44.13;;;31.40;1.00;;;;;;5072830;28;20448;-49
2023/10/19 04:27:15;;;;;;;54.85;43.17;;;31.40;1.00;;;;;;5054600;28;20025;-50
2023/10/19 04:29:43;;;;;;;53.15;42.15;;;31.40;1.00;;;;;;5072475;28;20085;-49
2023/10/19 04:32:09;;;;;;;54.17;43.00;;;31.40;1.00;;;;;;5072440;28;20470;-49
2023/10/19 04:34:36;;;;;;;53.45;42.85;;;31.40;1.00;;;;;;5072603;28;20085;-48
2023/10/19 04:37:03;;;;;;;56.13;41.50;;;31.40;1.00;;;;;;5065481;28;20028;-51
2023/10/19 04:39:30;;;;;;;52.50;41.83;;;31.40;1.00;;;;;;5065384;28;20492;-48
2023/10/19 04:41:55;;;;;;;54.92;42.60;;;31.40;1.00;;;;;;5072236;28;20016;-49
2023/10/19 04:44:22;;;;;;;53.22;40.65;;;31.40;1.00;;;;;;5072367;28;20036;-48
2023/10/19 04:46:48;;;;;;;55.80;42.47;;;31.40;1.00;;;;;;5072255;28;20462;-48
2023/10/19 04:49:16;;;;;;;57.17;43.10;;;31.40;1.00;;;;;;5060662;28;20024;-50
2023/10/19 04:51:43;;;;;;;53.97;42.33;;;31.40;1.00;;;;;;5072256;28;20020;-49
2023/10/19 04:54:09;;;;;;;57.08;42.15;;;31.40;1.00;;;;;;5072272;28;20028;-48
2023/10/19 04:56:38;;;;;;;54.28;42.03;;;31.40;1.00;;;;;;5072369;28;20048;-49
2023/10/19 04:59:04;;;;;;;59.20;44.55;;;31.30;1.00;;;;;;5072395;28;20421;-48
2023/10/19 05:01:33;;;;;;;57.67;43.38;;;31.30;1.00;;;;;;5072170;28;20076;-49
2023/10/19 05:03:59;;;;;;;57.03;44.90;;;31.30;1.00;;;;;;5071794;28;20025;-50
2023/10/19 05:06:25;;;;;;;58.55;45.45;;;31.30;1.00;;;;;;5072110;28;20021;-48
2023/10/19 05:08:52;;;;;;;58.17;44.33;;;31.30;1.00;;;;;;5072226;28;20025;-48
2023/10/19 05:11:17;;;;;;;58.55;42.95;;;31.30;1.00;;;;;;5071943;28;20383;-49
2023/10/19 05:13:43;;;;;;;63.05;45.72;;;31.30;1.00;;;;;;5072125;28;20062;-50
2023/10/19 05:16:09;;;;;;;61.90;46.55;;;31.30;1.00;;;;;;5072282;28;20024;-52
2023/10/19 05:18:34;;;;;;;53.15;42.67;;;31.30;1.00;;;;;;5072246;28;20031;-47
2023/10/19 05:21:49;;;;;;;58.92;45.78;;;31.30;1.00;;;;;;5072179;28;20103;-51
2023/10/19 05:24:18;;;;;;;60.20;46.10;;;31.40;1.00;;;;;;5071387;28;20094;-50
2023/10/19 05:26:43;;;;;;;56.10;43.05;;;31.40;1.00;;;;;;5070534;28;20024;-49
2023/10/19 05:29:09;;;;;;;61.50;45.70;;;31.30;1.00;;;;;;5071750;28;20039;-49
2023/10/19 05:31:35;;;;;;;56.60;45.20;;;31.40;1.00;;;;;;5071685;28;20024;-51
2023/10/19 05:34:01;;;;;;;58.67;45.17;;;31.40;1.00;;;;;;5072075;28;20038;-49
2023/10/19 05:36:26;;;;;;;59.75;45.75;;;31.30;1.00;;;;;;5072238;28;20070;-49
2023/10/19 05:38:52;;;;;;;56.40;43.63;;;31.40;1.00;;;;;;5071817;28;20017;-53
2023/10/19 05:41:21;;;;;;;54.15;42.28;;;31.30;1.00;;;;;;5053875;28;20103;-52
2023/10/19 05:43:46;;;;;;;57.67;43.03;;;31.40;1.00;;;;;;5071522;28;20024;-50
2023/10/19 05:46:13;;;;;;;59.67;43.63;;;31.40;1.00;;;;;;5040258;28;20024;-52
2023/10/19 05:48:39;;;;;;;51.50;41.05;;;31.40;1.00;;;;;;5071459;28;20358;-50
2023/10/19 05:51:04;;;;;;;56.08;42.33;;;31.40;1.00;;;;;;5071275;28;20028;-52
2023/10/19 05:53:30;;;;;;;55.08;41.38;;;31.30;1.00;;;;;;5075057;28;20028;-48
2023/10/19 05:55:56;;;;;;;50.72;38.45;;;31.30;1.00;;;;;;5073562;28;20017;-51
2023/10/19 05:58:21;;;;;;;49.75;39.03;;;31.30;1.00;;;;;;5075634;28;20412;-50
2023/10/19 06:00:47;;;;;;;50.83;37.60;;;31.30;1.00;;;;;;5075511;28;20031;-51
2023/10/19 06:03:12;;;;;;;44.95;36.40;;;31.30;1.00;;;;;;5075291;28;20153;-51
2023/10/19 06:05:38;;;;;;;44.20;35.70;;;31.30;1.00;;;;;;5075481;28;20462;-50
2023/10/19 06:08:04;;;;;;;49.60;36.90;;;31.30;1.00;;;;;;5075335;28;20060;-50
2023/10/19 06:10:30;;;;;;;47.80;36.65;;;31.30;1.00;;;;;;5061137;28;20021;-49
2023/10/19 06:12:57;;;;;;;43.80;35.67;;;31.30;1.00;;;;;;5075167;28;20032;-49
2023/10/19 06:15:25;;;;;;;43.70;34.67;;;31.40;1.00;;;;;;5075449;28;20111;-49
2023/10/19 06:17:52;;;;;;;42.35;31.70;;;31.40;1.00;;;;;;5075184;28;20107;-48
2023/10/19 06:20:24;;;;;;;39.88;31.60;;;31.40;1.00;;;;;;5075002;28;20024;-52
2023/10/19 06:23:03;;;;;;;39.05;29.58;;;31.40;1.00;;;;;;5074891;28;20031;-49
2023/10/19 06:25:29;;;;;;;35.22;27.92;;;31.30;1.00;;;;;;5075052;28;20020;-51
2023/10/19 06:27:57;;;;;;;34.53;27.48;;;31.20;1.00;;;;;;5074805;28;20308;-52
2023/10/19 06:30:23;;;;;;;36.95;28.02;;;31.30;1.00;;;;;;5074860;28;20051;-52
2023/10/19 06:32:51;;;;;;;37.22;27.58;;;31.40;1.00;;;;;;5074853;28;20093;-49
2023/10/19 06:35:18;;;;;;;37.10;29.00;;;31.40;1.00;;;;;;5074937;28;20489;-50
2023/10/19 06:37:44;;;;;;;38.08;29.50;;;31.30;1.00;;;;;;5074698;28;20081;-49
2023/10/19 06:40:11;;;;;;;37.30;29.13;;;31.30;1.00;;;;;;5053220;28;20017;-49
2023/10/19 06:42:38;;;;;;;35.22;28.08;;;31.30;1.00;;;;;;5070084;28;20090;-52
2023/10/19 06:45:04;;;;;;;37.95;27.58;;;31.30;1.00;;;;;;5074416;28;20029;-51
2023/10/19 06:47:30;;;;;;;32.90;26.13;;;31.30;1.00;;;;;;5068110;28;20029;-49
2023/10/19 06:49:56;;;;;;;32.88;26.33;;;31.30;1.00;;;;;;5052012;28;20028;-50
2023/10/19 06:52:22;;;;;;;33.22;25.40;;;31.40;1.00;;;;;;5074642;28;20031;-48
2023/10/19 06:54:47;;;;;;;31.48;25.58;;;31.40;1.00;;;;;;5074269;28;20131;-47
2023/10/19 06:57:13;;;;;;;31.50;23.65;;;31.40;1.00;;;;;;5074463;28;20027;-47
2023/10/19 06:59:38;;;;;;;30.08;22.02;;;31.40;1.00;;;;;;5074361;28;20051;-48
2023/10/19 07:02:07;;;;;;;30.42;23.98;;;31.40;1.00;;;;;;5073946;28;20490;-50
2023/10/19 07:04:33;;;;;;;29.63;24.95;;;31.50;1.00;;;;;;5057016;28;20052;-49
2023/10/19 07:07:00;;;;;;;30.38;25.05;;;31.40;1.00;;;;;;5074090;28;20061;-50
2023/10/19 07:09:26;;;;;;;31.65;24.67;;;31.40;1.00;;;;;;5074127;28;20120;-48
2023/10/19 07:11:54;;;;;;;34.15;26.08;;;31.40;1.00;;;;;;5073860;28;20060;-50
2023/10/19 07:14:22;;;;;;;31.67;23.50;;;31.40;1.00;;;;;;5074060;28;20512;-55
2023/10/19 07:16:49;;;;;;;33.58;26.15;;;31.40;1.00;;;;;;5073814;28;20029;-54
2023/10/19 07:19:15;;;;;;;32.88;26.58;;;31.40;1.00;;;;;;5073511;28;20493;-52
2023/10/19 07:21:42;;;;;;;40.92;30.35;;;31.40;1.00;;;;;;5073926;28;20028;-59
2023/10/19 07:24:11;;;;;;;37.45;28.35;;;31.40;1.00;;;;;;5056421;28;20458;-52
2023/10/19 07:26:51;;;;;;;36.25;27.02;;;31.40;1.00;;;;;;5073740;28;20056;-56
2023/10/19 07:29:16;;;;;;;36.00;27.33;;;31.40;1.00;;;;;;5073611;28;20478;-56
2023/10/19 07:31:42;;;;;;;36.63;26.42;;;31.40;1.00;;;;;;5073463;28;20016;-53
2023/10/19 07:34:12;;;;;;;34.00;25.75;;;31.40;1.00;;;;;;5073782;28;20036;-51
2023/10/19 07:36:38;;;;;;;34.00;25.73;;;31.40;1.00;;;;;;5071248;28;20031;-52
2023/10/19 07:45:48;;;;;;;37.35;26.45;;;31.40;1.00;;;;;;5068309;28;20047;-64
2023/10/19 07:48:14;;;;;;;34.08;25.40;;;31.40;1.00;;;;;;5071673;28;20116;-65
2023/10/19 07:50:40;;;;;;;35.08;26.08;;;31.30;1.00;;;;;;5072104;28;20024;-58
2023/10/19 07:53:06;;;;;;;37.00;24.63;;;31.30;1.00;;;;;;5070234;28;20089;-60
2023/10/19 07:55:32;;;;;;;37.50;25.70;;;31.30;1.00;;;;;;5069098;28;20103;-60
2023/10/19 07:58:03;;;;;;;49.88;31.55;;;31.10;1.00;;;;;;5067506;28;20111;-59
2023/10/19 08:00:34;;;;;;;56.55;34.78;;;30.90;1.00;;;;;;5073236;28;20086;-59
2023/10/19 08:03:00;;;;;;;64.28;33.80;;;30.70;1.00;;;;;;5072371;28;20456;-59
2023/10/19 08:05:26;;;;;;;58.20;32.45;;;30.60;1.00;;;;;;5079655;28;20108;-60
2023/10/19 08:07:52;;;;;;;58.92;31.63;;;30.50;1.00;;;;;;5072780;28;20103;-60
2023/10/19 08:10:19;;;;;;;54.65;31.88;;;30.60;1.00;;;;;;5072646;28;20017;-61
2023/10/19 08:12:47;;;;;;;53.58;36.78;;;30.60;1.00;;;;;;5057632;28;20051;-64
2023/10/19 08:15:15;;;;;;;54.42;35.40;;;30.80;1.00;;;;;;5072202;28;20390;-68
2023/10/19 08:17:55;;;;;;;57.47;36.50;;;30.90;1.00;;;;;;5072824;28;20017;-55
2023/10/19 08:20:30;;;;;;;49.65;34.65;;;31.00;1.00;;;;;;5067415;28;20081;-54
2023/10/19 08:22:59;;;;;;;46.85;37.08;;;31.00;1.00;;;;;;5065384;28;20033;-59
2023/10/19 08:25:28;;;;;;;44.17;33.97;;;31.20;1.00;;;;;;5064021;28;20048;-59
2023/10/19 08:27:57;;;;;;;39.53;34.28;;;31.20;1.00;;;;;;5064367;28;20028;-59
2023/10/19 08:30:23;;;;;;;43.70;34.53;;;31.20;1.00;;;;;;5064541;28;20505;-59
2023/10/19 08:32:51;;;;;;;45.92;35.05;;;31.20;1.00;;;;;;5060072;28;20029;-60
2023/10/19 08:35:20;;;;;;;42.10;32.35;;;31.20;1.00;;;;;;5061228;28;20423;-60
2023/10/19 08:37:46;;;;;;;45.90;35.25;;;31.20;99.90;;;;;;5057296;28;20111;-62
2023/10/19 08:40:15;;;;;;;44.40;34.28;;;31.20;99.90;;;;;;5068405;28;20024;-59
2023/10/19 08:42:48;;;;;;;40.58;34.17;;;31.30;99.90;;;;;;5068165;28;20025;-59
2023/10/19 08:45:14;;;;;;;40.90;33.03;;;31.30;99.90;;;;;;5072256;28;20029;-60
2023/10/19 08:47:59;;;;;;;44.60;33.38;;;31.30;99.90;;;;;;5071094;28;20073;-59
2023/10/19 08:50:26;;;;;;;44.35;35.78;;;31.30;99.90;;;;;;5046194;28;20055;-59
2023/10/19 08:52:57;;;;;;;47.28;36.67;;;31.30;99.90;;;;;;5058619;28;20028;-62
2023/10/19 08:55:23;;;;;;;47.65;32.90;;;31.30;99.90;;;;;;5072262;28;20027;-62
2023/10/19 08:57:50;;;;;;;45.30;34.03;;;31.40;99.90;;;;;;5065575;28;20097;-60
2023/10/19 09:00:19;;;;;;;39.08;32.95;;;31.40;99.90;;;;;;5063702;28;20025;-65
2023/10/19 09:02:48;;;;;;;54.30;35.78;;;31.30;99.90;;;;;;5069673;28;20044;-58
2023/10/19 09:05:22;;;;;;;44.35;33.60;;;31.40;42.50;;;;;;5068536;28;20049;-59
2023/10/19 09:07:54;;;;;;;38.93;31.80;;;31.40;1.00;;;;;;5069655;28;20121;-63
2023/10/19 09:10:22;;;;;;;37.42;28.23;;;31.40;1.00;;;;;;5066275;28;20111;-64
2023/10/19 09:13:01;;;;;;;34.45;23.08;;;31.50;1.00;;;;;;5055891;28;20582;-65
2023/10/19 09:15:28;;;;;;;33.42;24.13;;;31.50;1.00;;;;;;5084037;28;20052;-61
2023/10/19 09:17:54;;;;;;;31.52;23.00;;;31.50;1.00;;;;;;5064747;28;20110;-56
2023/10/19 09:20:27;;;;;;;37.65;29.20;;;31.50;1.00;;;;;;5048407;28;20131;-61
2023/10/19 09:23:01;;;;;;;38.88;31.30;;;31.50;1.00;;;;;;5053895;28;20055;-61
2023/10/19 09:25:27;;;;;;;37.80;30.70;;;31.50;1.00;;;;;;5060468;28;20024;-61
2023/10/19 09:27:53;;;;;;;44.38;33.72;;;31.40;1.00;;;;;;5063723;28;20089;-60
2023/10/19 09:30:21;;;;;;;42.60;34.15;;;31.50;1.00;;;;;;5073062;28;20024;-61
2023/10/19 09:32:47;;;;;;;40.88;30.90;;;31.20;1.00;;;;;;5089197;28;20046;-63
2023/10/19 09:35:19;;;;;;;34.83;28.52;;;31.10;1.00;;;;;;5072602;28;20457;-62
2023/10/19 09:37:45;;;;;;;31.23;26.33;;;30.70;1.00;;;;;;5078231;28;20103;-62
2023/10/19 09:40:13;;;;;;;33.58;26.55;;;30.50;1.00;;;;;;5073547;28;20104;-61
2023/10/19 09:42:49;;;;;;;42.42;32.03;;;30.40;1.00;;;;;;5075852;28;20024;-61
2023/10/19 09:45:19;;;;;;;40.03;32.35;;;30.80;1.00;;;;;;5060230;28;20033;-62
2023/10/19 09:47:54;;;;;;;37.38;31.23;;;31.00;1.00;;;;;;5075278;28;20021;-65
2023/10/19 09:50:19;;;;;;;41.22;31.05;;;31.00;1.00;;;;;;5067972;28;20371;-66
2023/10/19 09:52:45;;;;;;;46.35;30.45;;;30.90;1.00;;;;;;5054197;28;20059;-63
2023/10/19 09:55:33;;;;;;;38.30;28.75;;;30.90;1.00;;;;;;5066629;28;20028;-63
2023/10/19 09:58:15;;;;;;;35.28;28.60;;;30.80;1.00;;;;;;5068506;28;20074;-61
2023/10/19 10:00:50;;;;;;;32.67;24.48;;;30.80;1.00;;;;;;5066162;28;20036;-62
2023/10/19 10:03:48;;;;;;;29.45;22.45;;;30.70;1.00;;;;;;5067269;28;20045;-62
2023/10/19 10:06:27;;;;;;;29.27;22.77;;;30.70;1.00;;;;;;5066919;28;20112;-63
2023/10/19 10:08:54;;;;;;;30.48;22.77;;;30.60;1.00;;;;;;5069440;28;20032;-63
2023/10/19 10:11:29;;;;;;;28.00;22.60;;;30.70;1.00;;;;;;5065002;28;20029;-63
2023/10/19 10:13:55;;;;;;;;;;;30.60;1.00;;;;;;5068094;28;20127;-61
2023/10/19 10:16:32;;;;;;;28.67;21.98;;;30.60;1.00;;;;;;5068208;28;20045;-66
2023/10/19 10:18:59;;;;;;;24.52;20.48;;;30.60;1.00;;;;;;5065552;28;20040;-65
2023/10/19 10:21:26;;;;;;;28.67;22.33;;;30.70;1.00;;;;;;5068435;28;20020;-65
2023/10/19 10:23:55;;;;;;;28.65;22.90;;;30.60;1.00;;;;;;5067601;28;20041;-71
2023/10/19 10:26:24;;;;;;;27.30;23.30;;;30.60;1.00;;;;;;5066729;28;20032;-64
2023/10/19 10:29:28;;;;;;;26.58;21.85;;;30.60;1.00;;;;;;5065871;28;20043;-62
2023/10/19 10:31:53;;;;;;;26.60;22.08;;;30.60;1.00;;;;;;5068370;28;20019;-61
2023/10/19 10:34:37;;;;;;;23.75;20.17;;;30.60;1.00;;;;;;5080155;28;20139;-71
2023/10/19 10:37:11;;;;;;;22.83;18.85;;;30.60;1.00;;;;;;5067560;28;20036;-67
2023/10/19 10:39:38;;;;;;;20.98;18.77;;;30.60;1.00;;;;;;5069570;28;20029;-67
2023/10/19 10:42:05;;;;;;;20.40;18.33;;;30.60;1.00;;;;;;5074649;28;20029;-67
2023/10/19 10:44:47;;;;;;;22.48;20.08;;;30.60;1.00;;;;;;5067622;28;20039;-62
2023/10/19 10:47:24;;;;;;;23.10;19.50;;;30.60;1.00;;;;;;5073582;28;20028;-63
2023/10/19 10:49:50;;;;;;;23.38;20.42;;;30.60;1.00;;;;;;5079236;28;20109;-62
2023/10/19 10:52:25;;;;;;;25.20;20.73;;;30.70;1.00;;;;;;5069776;28;20501;-62
2023/10/19 10:54:52;;;;;;;26.55;22.65;;;30.80;1.00;;;;;;5074351;28;20116;-61
2023/10/19 10:57:20;;;;;;;25.73;22.83;;;30.70;1.00;;;;;;5077305;28;20028;-65
2023/10/19 10:59:45;;;;;;;30.65;25.35;;;30.80;1.00;;;;;;5076433;28;20028;-61
2023/10/19 11:02:18;;;;;;;25.70;22.63;;;30.80;1.00;;;;;;5058532;28;20071;-62
2023/10/19 11:04:45;;;;;;;24.05;21.25;;;30.80;1.00;;;;;;5072775;28;20029;-62
2023/10/19 11:07:18;;;;;;;26.55;21.23;;;30.80;1.00;;;;;;5056525;28;20028;-62
2023/10/19 11:09:45;;;;;;;24.08;20.55;;;30.70;1.00;;;;;;5074396;28;20028;-62
2023/10/19 11:12:19;;;;;;;26.40;20.08;;;30.80;1.00;;;;;;5073730;28;20032;-62
2023/10/19 11:15:09;;;;;;;24.25;20.42;;;30.80;1.00;;;;;;5073914;28;20048;-63
2023/10/19 11:17:42;;;;;;;25.20;20.95;;;30.90;1.00;;;;;;5059440;28;20019;-62
2023/10/19 11:20:13;;;;;;;24.08;21.42;;;30.80;1.00;;;;;;5073988;28;20474;-62
2023/10/19 11:22:48;;;;;;;29.45;24.13;;;30.80;1.00;;;;;;5073614;28;20508;-63
2023/10/19 11:28:54;;;;;;;23.58;20.38;;;30.90;1.00;;;;;;5068989;28;20031;-63
2023/10/19 11:31:24;;;;;;;23.63;20.98;;;30.90;1.00;;;;;;5073468;28;20017;-63
2023/10/19 11:33:58;;;;;;;25.90;22.35;;;30.80;1.00;;;;;;5047986;28;20037;-62
2023/10/19 11:36:24;;;;;;;28.45;24.60;;;30.90;1.00;;;;;;5055829;28;20086;-66
2023/10/19 11:38:52;;;;;;;28.38;24.35;;;31.00;1.00;;;;;;5051422;28;20529;-68
2023/10/19 14:01:26;;;;;;;27.23;22.52;;;32.00;1.00;;;;;;5073160;28;20070;-65
2023/10/19 14:03:55;;;;;;;27.58;21.90;;;32.00;1.00;;;;;;5072157;28;20056;-63
2023/10/19 14:06:22;;;;;;;27.83;22.50;;;32.10;1.00;;;;;;5057993;28;20033;-60
2023/10/19 14:08:47;;;;;;;29.67;22.33;;;32.10;1.00;;;;;;5070525;28;20485;-61
2023/10/19 14:11:14;;;;;;;26.20;21.67;;;32.10;1.00;;;;;;5072339;28;20116;-72
2023/10/19 14:13:42;;;;;;;26.58;22.00;;;32.10;1.00;;;;;;5057870;28;20206;-62
2023/10/19 14:16:09;;;;;;;23.65;21.10;;;32.10;1.00;;;;;;5057916;28;20021;-65
2023/10/19 14:18:38;;;;;;;25.88;21.90;;;32.10;1.00;;;;;;5077428;28;20058;-72
2023/10/19 14:21:31;;;;;;;28.17;22.30;;;32.10;1.00;;;;;;5076359;28;20028;-62
2023/10/19 14:23:57;;;;;;;26.85;21.20;;;32.10;1.00;;;;;;5054734;28;20033;-64
2023/10/19 14:26:23;;;;;;;25.17;21.35;;;32.10;1.00;;;;;;5075481;28;20046;-66
2023/10/19 14:28:49;;;;;;;23.73;21.10;;;32.10;1.00;;;;;;5073569;28;20051;-65
2023/10/19 14:31:16;;;;;;;26.77;21.70;;;32.10;1.00;;;;;;5064109;28;20024;-65
2023/10/19 14:33:42;;;;;;;26.35;21.52;;;32.10;1.00;;;;;;5062057;28;20043;-71
2023/10/19 14:36:09;;;;;;;26.83;22.33;;;32.10;1.00;;;;;;5066996;28;20016;-65
2023/10/19 14:38:35;;;;;;;28.00;22.30;;;32.10;1.00;;;;;;5067053;28;20032;-64
2023/10/19 14:41:01;;;;;;;25.38;22.35;;;32.10;1.00;;;;;;5075550;28;20063;-65
2023/10/19 14:43:29;;;;;;;24.42;21.20;;;32.20;1.00;;;;;;5066100;28;20029;-62
2023/10/19 14:45:55;;;;;;;23.00;20.58;;;32.10;1.00;;;;;;5056376;28;20471;-63
2023/10/19 14:48:22;;;;;;;23.15;19.95;;;32.10;1.00;;;;;;5074302;28;20085;-60
2023/10/19 14:50:50;;;;;;;23.17;20.67;;;32.10;1.00;;;;;;5074927;28;20020;-62
2023/10/19 14:53:17;;;;;;;21.05;18.77;;;32.10;1.00;;;;;;5066651;28;20128;-62
2023/10/19 14:55:46;;;;;;;23.98;19.77;;;32.10;1.00;;;;;;5067240;28;20202;-75
2023/10/19 14:58:12;;;;;;;21.75;19.45;;;32.10;1.00;;;;;;5074017;28;20039;-74
2023/10/19 15:00:42;;;;;;;23.27;20.58;;;32.10;1.00;;;;;;5073538;28;20056;-67
2023/10/19 15:03:08;;;;;;;23.00;19.80;;;32.10;1.00;;;;;;5054784;28;20536;-68
2023/10/19 15:05:37;;;;;;;21.30;18.70;;;32.20;1.00;;;;;;5073626;28;20021;-73
2023/10/19 15:08:06;;;;;;;19.15;17.15;;;32.20;1.00;;;;;;5067912;28;20023;-60
2023/10/19 15:10:32;;;;;;;20.50;18.23;;;32.10;1.00;;;;;;5074207;28;20103;-67
2023/10/19 15:12:59;;;;;;;18.20;16.30;;;32.10;1.00;;;;;;5072671;28;20484;-67
2023/10/19 15:15:25;;;;;;;22.52;17.77;;;32.10;1.00;;;;;;5072498;28;20028;-65
2023/10/19 15:17:52;;;;;;;23.80;20.40;;;32.00;1.00;;;;;;5065699;28;20108;-67
2023/10/19 15:20:19;;;;;;;20.75;17.73;;;32.00;1.00;;;;;;5073585;28;20445;-70
2023/10/19 15:22:46;;;;;;;19.42;17.33;;;32.10;1.00;;;;;;5074930;28;20421;-74
2023/10/19 15:25:13;;;;;;;19.08;17.10;;;32.10;1.00;;;;;;5064920;28;20031;-74
2023/10/19 15:27:40;;;;;;;18.20;16.33;;;32.20;1.00;;;;;;5055060;28;20029;-67
2023/10/19 15:30:11;;;;;;;19.88;17.67;;;32.20;1.00;;;;;;5073706;28;20051;-64
2023/10/19 15:32:44;;;;;;;16.85;15.13;;;32.20;1.00;;;;;;5073717;28;20036;-66
2023/10/19 15:35:11;;;;;;;16.67;14.75;;;32.20;1.00;;;;;;5073788;28;20032;-66
2023/10/19 15:37:37;;;;;;;17.00;15.18;;;32.20;1.00;;;;;;5074089;28;20029;-74
2023/10/19 15:40:04;;;;;;;17.35;15.45;;;32.20;1.00;;;;;;5069056;28;20119;-66
2023/10/19 15:42:30;;;;;;;18.63;16.60;;;32.20;1.00;;;;;;5072348;28;20074;-65
2023/10/19 15:44:56;;;;;;;21.98;17.02;;;32.10;1.00;;;;;;5073097;28;20032;-65